Time;durP1;ratioP1;P1;durP2;ratioP2;P2;SDS_P1;SDS_P2;PMS_P1;PMS_P2;Temp;Humidity;BMP_temperature;BMP_pressure;BME280_temperature;BME280_humidity;BME280_pressure;Samples;Min_cycle;Max_cycle;Signal;HPM_P1;HPM_P2
2023/01/04 00:00:16;;;;;;;5.53;1.25;;;8.50;99.90;;;;;;5036614;28;20033;-85
2023/01/04 00:02:42;;;;;;;3.40;1.02;;;8.50;99.90;;;;;;5038111;28;20036;-86
2023/01/04 00:05:09;;;;;;;7.93;1.27;;;8.50;99.90;;;;;;5039915;28;20057;-85
2023/01/04 00:07:35;;;;;;;7.38;1.52;;;8.50;99.90;;;;;;5002950;28;20033;-84
2023/01/04 00:10:01;;;;;;;10.80;1.30;;;8.50;99.90;;;;;;5035375;28;20041;-87
2023/01/04 00:12:28;;;;;;;7.45;1.35;;;8.50;99.90;;;;;;5030850;28;20053;-82
2023/01/04 00:14:54;;;;;;;5.53;1.40;;;8.40;99.90;;;;;;5029544;28;20044;-90
2023/01/04 00:17:20;;;;;;;3.25;1.00;;;8.40;99.90;;;;;;5017885;28;20408;-87
2023/01/04 00:19:47;;;;;;;6.53;1.55;;;8.40;99.90;;;;;;5010096;28;20042;-87
2023/01/04 00:22:13;;;;;;;10.15;1.13;;;8.40;99.90;;;;;;5025543;28;20041;-83
2023/01/04 00:24:39;;;;;;;6.82;1.20;;;8.40;99.90;;;;;;5043826;28;20043;-85
2023/01/04 00:27:06;;;;;;;5.80;1.45;;;8.40;99.90;;;;;;5047425;28;20024;-80
2023/01/04 00:29:32;;;;;;;5.90;1.10;;;8.40;99.90;;;;;;5029469;28;20037;-89
2023/01/04 00:31:59;;;;;;;6.93;1.13;;;8.40;99.90;;;;;;5023059;28;20032;-86
2023/01/04 00:34:25;;;;;;;9.52;1.60;;;8.40;99.90;;;;;;5037761;28;20062;-88
2023/01/04 00:36:52;;;;;;;9.27;1.63;;;8.30;99.90;;;;;;5035874;28;20029;-82
2023/01/04 00:39:18;;;;;;;8.85;1.73;;;8.30;99.90;;;;;;5020926;28;20377;-84
2023/01/04 00:41:50;;;;;;;4.68;1.02;;;8.40;99.90;;;;;;5029036;28;20029;-85
2023/01/04 00:44:20;;;;;;;8.32;1.60;;;8.40;99.90;;;;;;5025746;28;20033;-90
2023/01/04 00:46:47;;;;;;;9.52;1.60;;;8.30;99.90;;;;;;5029361;28;20029;-83
2023/01/04 00:49:13;;;;;;;4.07;1.50;;;8.30;99.90;;;;;;5011830;28;20038;-83
2023/01/04 00:51:41;;;;;;;6.55;1.15;;;8.30;99.90;;;;;;5000151;28;20424;-81
2023/01/04 00:54:12;;;;;;;4.70;1.23;;;8.30;99.90;;;;;;5025772;28;20411;-85
2023/01/04 00:56:38;;;;;;;8.48;2.17;;;8.30;99.90;;;;;;5034502;28;20472;-84
2023/01/04 00:59:05;;;;;;;7.35;2.05;;;8.30;99.90;;;;;;5026870;28;20048;-83
2023/01/04 01:01:32;;;;;;;6.85;1.15;;;8.30;99.90;;;;;;4996822;28;20037;-83
2023/01/04 01:04:01;;;;;;;16.52;1.85;;;8.30;99.90;;;;;;5008439;28;20038;-82
2023/01/04 01:06:29;;;;;;;5.40;1.55;;;8.30;99.90;;;;;;5014103;28;20037;-81
2023/01/04 01:08:56;;;;;;;10.95;1.40;;;8.30;99.90;;;;;;5012590;28;20041;-81
2023/01/04 01:11:23;;;;;;;6.90;1.40;;;8.30;99.90;;;;;;4995249;28;20037;-81
2023/01/04 01:13:50;;;;;;;7.28;2.25;;;8.30;99.90;;;;;;5021945;28;20037;-81
2023/01/04 01:16:19;;;;;;;13.20;2.35;;;8.30;99.90;;;;;;5007536;28;20385;-80
2023/01/04 01:18:46;;;;;;;6.20;1.80;;;8.40;99.90;;;;;;5046750;28;20468;-81
2023/01/04 01:21:24;;;;;;;7.00;1.08;;;8.30;99.90;;;;;;5031428;28;20037;-81
2023/01/04 01:23:50;;;;;;;7.75;1.45;;;8.40;99.90;;;;;;5020824;28;20032;-81
2023/01/04 01:26:19;;;;;;;4.95;1.20;;;8.40;99.90;;;;;;5032749;28;20037;-81
2023/01/04 01:28:47;;;;;;;4.97;1.10;;;8.40;99.90;;;;;;5038632;28;20420;-82
2023/01/04 01:31:19;;;;;;;8.65;1.23;;;8.40;99.90;;;;;;5034302;28;20149;-83
2023/01/04 01:33:47;;;;;;;7.63;2.67;;;8.50;99.90;;;;;;5013099;28;20036;-81
2023/01/04 01:36:15;;;;;;;5.55;1.60;;;8.50;99.90;;;;;;5011686;28;20044;-82
2023/01/04 01:38:42;;;;;;;6.25;1.42;;;8.50;99.90;;;;;;5033648;28;20400;-81
2023/01/04 01:41:20;;;;;;;6.68;1.40;;;8.50;99.90;;;;;;5039722;28;20037;-81
2023/01/04 01:43:53;;;;;;;4.07;1.55;;;8.50;99.90;;;;;;5032272;28;20042;-81
2023/01/04 01:46:34;;;;;;;6.07;1.55;;;8.50;99.90;;;;;;5010884;28;20455;-81
2023/01/04 01:49:19;;;;;;;3.78;1.40;;;8.60;99.90;;;;;;5018189;28;20523;-84
2023/01/04 01:51:45;;;;;;;5.47;1.30;;;8.60;99.90;;;;;;5027940;28;20041;-81
2023/01/04 01:54:35;;;;;;;4.57;1.60;;;8.60;99.90;;;;;;5023747;28;20064;-82
2023/01/04 01:57:05;;;;;;;4.43;1.70;;;8.60;99.90;;;;;;5013577;28;20041;-82
2023/01/04 01:59:34;;;;;;;5.75;1.45;;;8.60;99.90;;;;;;5006815;28;20039;-82
2023/01/04 02:02:01;;;;;;;4.70;2.35;;;8.60;99.90;;;;;;5028057;28;20048;-81
2023/01/04 02:04:28;;;;;;;4.43;1.27;;;8.60;99.90;;;;;;5033364;28;20029;-81
2023/01/04 02:06:58;;;;;;;5.43;1.25;;;8.60;99.90;;;;;;5038006;28;20036;-83
2023/01/04 02:09:24;;;;;;;5.10;1.90;;;8.70;99.90;;;;;;5032861;28;20044;-84
2023/01/04 02:11:51;;;;;;;5.47;1.70;;;8.70;99.90;;;;;;5013072;28;20040;-84
2023/01/04 02:14:28;;;;;;;5.63;1.35;;;8.70;99.90;;;;;;5011672;28;20037;-83
2023/01/04 02:17:00;;;;;;;4.93;1.13;;;8.80;99.90;;;;;;5028637;28;20052;-85
2023/01/04 02:19:39;;;;;;;3.88;1.35;;;8.80;99.90;;;;;;5010118;28;20041;-86
2023/01/04 02:22:35;;;;;;;3.40;1.60;;;8.80;99.90;;;;;;5018673;28;20048;-83
2023/01/04 02:25:29;;;;;;;4.47;1.38;;;8.80;99.90;;;;;;5020155;28;20045;-81
2023/01/04 02:28:37;;;;;;;4.80;1.83;;;8.90;99.90;;;;;;5011685;28;20037;-82
2023/01/04 02:31:48;;;;;;;3.35;1.60;;;8.90;99.90;;;;;;5000290;28;20493;-82
2023/01/04 02:34:17;;;;;;;5.03;1.50;;;8.90;99.90;;;;;;5005921;28;20055;-82
2023/01/04 02:37:12;;;;;;;5.50;2.08;;;8.90;99.90;;;;;;5037687;28;20033;-82
2023/01/04 02:39:57;;;;;;;4.63;2.08;;;8.90;99.90;;;;;;5002239;28;20037;-83
2023/01/04 02:44:51;;;;;;;3.45;1.40;;;8.90;99.90;;;;;;5015182;28;20037;-81
2023/01/04 02:45:34;;;;;;;6.00;1.50;;;8.90;99.90;;;;;;5014104;28;20045;-81
2023/01/04 02:50:55;;;;;;;2.58;1.70;;;9.00;99.90;;;;;;5041461;28;20526;-81
2023/01/04 02:53:34;;;;;;;2.60;1.38;;;9.00;99.90;;;;;;5029052;28;20484;-80
2023/01/04 02:56:34;;;;;;;5.30;2.10;;;9.00;99.90;;;;;;5036569;28;20073;-81
2023/01/04 02:59:34;;;;;;;3.92;1.88;;;9.10;99.90;;;;;;5043973;28;20029;-81
2023/01/04 03:08:26;;;;;;;3.03;1.60;;;9.10;99.90;;;;;;5043045;28;20039;-81
2023/01/04 03:10:59;;;;;;;4.57;2.00;;;9.10;99.90;;;;;;5034542;28;20055;-82
2023/01/04 03:13:39;;;;;;;2.50;1.98;;;9.10;99.90;;;;;;5021411;28;20503;-81
2023/01/04 03:16:17;;;;;;;4.43;1.70;;;9.20;99.90;;;;;;5037153;28;20467;-82
2023/01/04 03:18:49;;;;;;;3.72;1.38;;;9.20;99.90;;;;;;5014328;28;20056;-83
2023/01/04 03:21:19;;;;;;;2.88;1.55;;;9.20;99.90;;;;;;5013030;28;20483;-83
2023/01/04 03:35:46;;;;;;;2.28;1.25;;;9.30;99.90;;;;;;5013435;28;20037;-83
2023/01/04 03:50:27;;;;;;;3.40;1.40;;;9.40;99.90;;;;;;5035678;28;20033;-83
2023/01/04 03:52:55;;;;;;;3.60;1.55;;;9.40;99.90;;;;;;5034674;28;20057;-83
2023/01/04 03:55:23;;;;;;;3.03;1.80;;;9.40;99.90;;;;;;5037723;28;20044;-83
2023/01/04 03:57:52;;;;;;;3.70;1.95;;;9.50;99.90;;;;;;5034739;28;20381;-82
2023/01/04 04:00:18;;;;;;;2.35;1.60;;;9.50;99.90;;;;;;5040864;28;20041;-83
2023/01/04 04:02:46;;;;;;;6.63;2.75;;;9.50;99.90;;;;;;5011386;28;20104;-80
2023/01/04 04:10:47;;;;;;;3.08;2.33;;;9.60;99.90;;;;;;5035711;28;20044;-83
2023/01/04 04:13:14;;;;;;;3.70;1.88;;;9.60;99.90;;;;;;5020087;28;20046;-84
2023/01/04 04:15:40;;;;;;;2.53;2.28;;;9.60;99.90;;;;;;5032474;28;20733;-81
2023/01/04 04:18:06;;;;;;;3.85;2.65;;;9.70;99.90;;;;;;5029661;28;20060;-83
2023/01/04 04:20:33;;;;;;;4.40;2.58;;;9.70;99.90;;;;;;5032610;28;20717;-83
2023/01/04 04:23:00;;;;;;;3.97;3.40;;;9.70;99.90;;;;;;5027572;28;20444;-84
2023/01/04 04:25:26;;;;;;;4.55;2.75;;;9.70;99.90;;;;;;5030974;28;20377;-83
2023/01/04 04:27:52;;;;;;;4.95;3.85;;;9.80;99.90;;;;;;5023731;28;20041;-85
2023/01/04 04:30:19;;;;;;;4.55;3.25;;;9.80;99.90;;;;;;5029941;28;20044;-84
2023/01/04 04:32:45;;;;;;;3.88;3.05;;;9.80;99.90;;;;;;5028667;28;20041;-80
2023/01/04 04:35:11;;;;;;;8.10;4.57;;;9.80;99.90;;;;;;5017544;28;20041;-83
2023/01/04 04:37:38;;;;;;;6.18;3.42;;;9.80;99.90;;;;;;5028949;28;20403;-84
2023/01/04 04:40:05;;;;;;;6.05;4.97;;;9.90;99.90;;;;;;5017387;28;20044;-86
2023/01/04 04:42:31;;;;;;;3.78;3.35;;;9.90;99.90;;;;;;5009507;28;20495;-84
2023/01/04 04:44:58;;;;;;;5.75;4.18;;;9.90;99.90;;;;;;5031734;28;20677;-81
2023/01/04 04:47:24;;;;;;;4.95;4.43;;;9.90;99.90;;;;;;5029485;28;20033;-80
2023/01/04 04:49:50;;;;;;;4.68;3.85;;;10.00;99.90;;;;;;5044634;28;20499;-83
2023/01/04 04:52:17;;;;;;;5.95;4.20;;;10.00;99.90;;;;;;5018966;28;20064;-84
2023/01/04 04:54:43;;;;;;;6.45;4.32;;;10.00;99.90;;;;;;5028827;28;20033;-83
2023/01/04 04:57:09;;;;;;;5.78;4.78;;;10.00;99.90;;;;;;5020011;28;20476;-82
2023/01/04 04:59:35;;;;;;;6.72;4.43;;;10.10;99.90;;;;;;5034336;28;20407;-84
2023/01/04 05:02:02;;;;;;;6.47;3.80;;;10.10;99.90;;;;;;5014844;28;20060;-86
2023/01/04 05:04:28;;;;;;;5.72;3.60;;;10.10;99.90;;;;;;5002190;28;20037;-81
2023/01/04 05:06:54;;;;;;;5.47;3.67;;;10.10;99.90;;;;;;5019351;28;20038;-81
2023/01/04 05:09:21;;;;;;;7.70;6.18;;;10.10;99.90;;;;;;5014352;28;20037;-85
2023/01/04 05:14:32;;;;;;;6.38;4.97;;;10.20;99.90;;;;;;5037413;28;20369;-84
2023/01/04 05:16:58;;;;;;;6.13;4.57;;;10.20;99.90;;;;;;5012246;28;20057;-82
2023/01/04 05:19:24;;;;;;;6.35;4.45;;;10.20;99.90;;;;;;5033688;28;20492;-85
2023/01/04 05:21:51;;;;;;;6.53;4.25;;;10.20;99.90;;;;;;5015893;28;20034;-84
2023/01/04 05:24:17;;;;;;;4.55;4.15;;;10.20;99.90;;;;;;5030110;28;20603;-83
2023/01/04 05:26:43;;;;;;;5.68;4.93;;;10.20;99.90;;;;;;5042637;28;20228;-82
2023/01/04 05:30:49;;;;;;;5.57;3.90;;;10.20;99.90;;;;;;5046014;28;20056;-84
2023/01/04 05:31:56;;;;;;;4.95;4.50;;;10.20;99.90;;;;;;5036167;28;20048;-83
2023/01/04 05:34:22;;;;;;;6.60;5.68;;;10.30;99.90;;;;;;5023324;28;20045;-82
2023/01/04 05:36:48;;;;;;;5.63;4.72;;;10.30;99.90;;;;;;5033813;28;20048;-84
2023/01/04 05:39:15;;;;;;;4.97;4.55;;;10.30;99.90;;;;;;5009136;28;20049;-82
2023/01/04 05:44:26;;;;;;;6.03;4.68;;;10.30;99.90;;;;;;5033807;28;20044;-82
2023/01/04 05:46:52;;;;;;;4.18;3.67;;;10.30;99.90;;;;;;5039833;28;20037;-85
2023/01/04 05:49:18;;;;;;;6.15;5.25;;;10.30;99.90;;;;;;5030879;28;20052;-82
2023/01/04 05:51:44;;;;;;;4.65;4.25;;;10.30;99.90;;;;;;5030870;28;20048;-83
2023/01/04 05:54:11;;;;;;;4.75;4.20;;;10.30;99.90;;;;;;5034762;28;20040;-84
2023/01/04 05:56:37;;;;;;;5.35;4.35;;;10.30;99.90;;;;;;5043106;28;20037;-82
2023/01/04 05:59:03;;;;;;;6.70;5.43;;;10.30;99.90;;;;;;5027587;28;20052;-83
2023/01/04 06:01:29;;;;;;;11.25;6.10;;;10.40;99.90;;;;;;5033024;28;20029;-82
2023/01/04 06:03:56;;;;;;;5.10;4.13;;;10.40;99.90;;;;;;5015002;28;20410;-82
2023/01/04 06:06:22;;;;;;;6.82;5.75;;;10.40;99.90;;;;;;5027370;28;20427;-83
2023/01/04 06:08:49;;;;;;;5.07;4.57;;;10.40;99.90;;;;;;5017835;28;20041;-82
2023/01/04 06:11:15;;;;;;;5.82;4.15;;;10.40;99.90;;;;;;5017994;28;20033;-83
2023/01/04 06:13:41;;;;;;;5.75;5.15;;;10.40;99.90;;;;;;5025084;28;20043;-81
2023/01/04 06:16:08;;;;;;;6.75;4.90;;;10.40;99.90;;;;;;5027730;28;20037;-80
2023/01/04 06:18:34;;;;;;;4.53;4.07;;;10.40;99.90;;;;;;5010973;28;20061;-81
2023/01/04 06:21:01;;;;;;;3.92;3.53;;;10.40;99.90;;;;;;5032116;28;20140;-81
2023/01/04 06:23:28;;;;;;;5.32;4.57;;;10.40;99.90;;;;;;5024771;28;20045;-81
2023/01/04 06:25:54;;;;;;;5.18;4.40;;;10.40;99.90;;;;;;5044177;28;20107;-80
2023/01/04 06:28:20;;;;;;;5.97;4.30;;;10.40;99.90;;;;;;5034563;28;20488;-82
2023/01/04 06:30:46;;;;;;;8.45;4.68;;;10.50;99.90;;;;;;5012658;28;20489;-80
2023/01/04 06:33:13;;;;;;;5.97;3.85;;;10.50;99.90;;;;;;5009129;28;21511;-81
2023/01/04 06:35:39;;;;;;;5.03;3.90;;;10.50;99.90;;;;;;5032072;28;20100;-81
2023/01/04 06:38:05;;;;;;;6.32;5.22;;;10.50;99.90;;;;;;5035269;28;20037;-81
2023/01/04 06:40:31;;;;;;;11.43;5.70;;;10.50;99.90;;;;;;5013107;28;20047;-81
2023/01/04 06:42:58;;;;;;;7.05;5.55;;;10.50;99.90;;;;;;5027102;28;20037;-81
2023/01/04 06:45:24;;;;;;;5.68;5.18;;;10.50;99.90;;;;;;5037448;28;20038;-81
2023/01/04 06:47:50;;;;;;;6.05;5.45;;;10.50;99.90;;;;;;5028946;28;20044;-81
2023/01/04 06:50:16;;;;;;;9.00;5.60;;;10.50;99.90;;;;;;5004066;28;20037;-80
2023/01/04 06:52:43;;;;;;;10.02;5.70;;;10.60;99.90;;;;;;5017548;28;20037;-82
2023/01/04 06:55:09;;;;;;;10.00;6.47;;;10.60;99.90;;;;;;5013903;28;20546;-81
2023/01/04 06:57:36;;;;;;;6.80;5.88;;;10.60;99.90;;;;;;5036403;28;20044;-80
2023/01/04 07:00:05;;;;;;;5.82;5.30;;;10.60;99.90;;;;;;5019842;28;20052;-81
2023/01/04 07:02:31;;;;;;;7.40;6.00;;;10.60;99.90;;;;;;5016581;28;20029;-81
2023/01/04 07:04:57;;;;;;;6.32;4.78;;;10.70;99.90;;;;;;5025890;28;20063;-84
2023/01/04 07:07:24;;;;;;;7.85;6.35;;;10.70;99.90;;;;;;5028479;28;20048;-88
2023/01/04 07:09:50;;;;;;;7.95;5.53;;;10.70;99.90;;;;;;5032163;28;20045;-88
2023/01/04 07:12:16;;;;;;;8.40;6.10;;;10.70;99.90;;;;;;5032238;28;20485;-90
2023/01/04 07:14:42;;;;;;;6.60;5.57;;;10.70;99.90;;;;;;5033909;28;20033;-88
2023/01/04 07:17:09;;;;;;;6.93;6.05;;;10.80;99.90;;;;;;5031483;28;20046;-84
2023/01/04 07:19:35;;;;;;;7.32;6.18;;;10.80;99.90;;;;;;5035863;28;20393;-83
2023/01/04 07:22:01;;;;;;;7.40;6.65;;;10.70;99.90;;;;;;5035406;28;20431;-88
2023/01/04 07:24:28;;;;;;;7.15;5.43;;;10.80;99.90;;;;;;5030556;28;20036;-83
2023/01/04 07:26:54;;;;;;;10.45;6.20;;;10.80;99.90;;;;;;5018706;28;20563;-82
2023/01/04 07:29:21;;;;;;;7.13;5.47;;;10.80;99.90;;;;;;5015582;28;20563;-81
2023/01/04 07:31:49;;;;;;;11.15;5.93;;;10.80;99.90;;;;;;5020699;28;20055;-84
2023/01/04 07:34:17;;;;;;;6.43;5.82;;;10.80;99.90;;;;;;5033367;28;20040;-85
2023/01/04 07:36:43;;;;;;;6.18;4.85;;;10.80;99.90;;;;;;5035686;28;20044;-85
2023/01/04 07:39:11;;;;;;;10.45;5.90;;;10.80;99.90;;;;;;5026533;28;20041;-87
2023/01/04 07:41:39;;;;;;;5.10;4.55;;;10.80;99.90;;;;;;5038059;28;20460;-83
2023/01/04 07:44:07;;;;;;;6.15;5.53;;;10.80;99.90;;;;;;5028826;28;20034;-84
2023/01/04 07:46:34;;;;;;;5.80;4.13;;;10.80;99.90;;;;;;5033323;28;20397;-84
2023/01/04 07:49:01;;;;;;;9.02;5.45;;;10.80;99.90;;;;;;5013823;28;20034;-86
2023/01/04 07:51:28;;;;;;;6.80;4.70;;;10.80;99.90;;;;;;5032569;28;20037;-84
2023/01/04 07:53:54;;;;;;;7.05;5.28;;;10.80;99.90;;;;;;5011144;28;20038;-81
2023/01/04 07:56:20;;;;;;;7.18;5.30;;;10.80;99.90;;;;;;5036493;28;20496;-85
2023/01/04 07:58:47;;;;;;;5.88;4.32;;;10.80;99.90;;;;;;5018077;28;20393;-82
2023/01/04 08:01:18;;;;;;;11.70;5.15;;;10.90;99.90;;;;;;5043566;28;20047;-82
2023/01/04 08:03:45;;;;;;;6.65;4.57;;;10.90;99.90;;;;;;5024124;28;20040;-78
2023/01/04 08:06:13;;;;;;;6.22;5.20;;;10.90;99.90;;;;;;5039771;28;20029;-84
2023/01/04 08:08:40;;;;;;;7.40;5.72;;;10.90;99.90;;;;;;5036550;28;20045;-82
2023/01/04 08:11:09;;;;;;;10.80;5.60;;;10.90;99.90;;;;;;5047183;28;20029;-79
2023/01/04 08:13:36;;;;;;;9.52;5.20;;;10.90;99.90;;;;;;5042541;28;20040;-81
2023/01/04 08:16:03;;;;;;;7.47;4.95;;;10.90;99.90;;;;;;5004465;28;20037;-82
2023/01/04 08:18:29;;;;;;;7.93;4.85;;;10.90;99.90;;;;;;5039275;28;20546;-80
2023/01/04 08:21:06;;;;;;;7.30;5.93;;;10.90;99.90;;;;;;5028830;28;20045;-81
2023/01/04 08:23:34;;;;;;;11.38;8.18;;;10.90;99.90;;;;;;5036360;28;20069;-81
2023/01/04 08:26:09;;;;;;;12.82;8.30;;;10.90;99.90;;;;;;5042705;28;20025;-81
2023/01/04 08:28:35;;;;;;;10.68;7.25;;;10.90;99.90;;;;;;5036877;28;20041;-81
2023/01/04 08:31:08;;;;;;;8.45;6.70;;;10.90;99.90;;;;;;5017144;28;20041;-81
2023/01/04 08:33:35;;;;;;;12.10;10.40;;;10.90;99.90;;;;;;5017912;28;20468;-81
2023/01/04 08:36:10;;;;;;;11.60;8.02;;;11.00;99.90;;;;;;5018056;28;20037;-81
2023/01/04 08:38:36;;;;;;;9.32;6.93;;;11.00;99.90;;;;;;5034754;28;20273;-81
2023/01/04 08:41:02;;;;;;;12.23;7.65;;;11.00;99.90;;;;;;5030724;28;20510;-82
2023/01/04 08:43:29;;;;;;;10.13;7.63;;;11.00;99.90;;;;;;5029558;28;20056;-80
2023/01/04 08:45:56;;;;;;;7.70;6.80;;;11.00;99.90;;;;;;5012443;28;20036;-81
2023/01/04 08:48:22;;;;;;;9.52;7.25;;;11.00;99.90;;;;;;5028056;28;20045;-81
2023/01/04 08:50:48;;;;;;;8.18;5.90;;;11.00;99.90;;;;;;5039301;28;20056;-81
2023/01/04 08:53:15;;;;;;;9.52;6.57;;;11.00;99.90;;;;;;5011485;28;20454;-80
2023/01/04 08:55:48;;;;;;;10.55;5.47;;;11.10;99.90;;;;;;5037093;28;20044;-81
2023/01/04 08:58:15;;;;;;;15.40;6.50;;;11.10;99.90;;;;;;5022834;28;20040;-80
2023/01/04 09:00:41;;;;;;;8.85;6.15;;;11.10;99.90;;;;;;5037747;28;20068;-81
2023/01/04 09:03:07;;;;;;;7.57;5.32;;;11.10;99.90;;;;;;5033436;28;20041;-81
2023/01/04 09:05:33;;;;;;;8.40;7.35;;;11.10;99.90;;;;;;5032602;28;20033;-78
2023/01/04 09:08:00;;;;;;;8.07;5.72;;;11.10;99.90;;;;;;5018619;28;20048;-80
2023/01/04 09:10:26;;;;;;;5.97;5.43;;;11.20;99.90;;;;;;5039921;28;20049;-82
2023/01/04 09:12:53;;;;;;;8.20;6.30;;;11.10;99.90;;;;;;4996705;28;20037;-78
2023/01/04 09:15:19;;;;;;;8.05;6.47;;;11.20;99.90;;;;;;5038206;28;20033;-82
2023/01/04 09:17:47;;;;;;;11.10;7.43;;;11.20;99.90;;;;;;5035910;28;20514;-84
2023/01/04 09:20:14;;;;;;;9.25;6.47;;;11.20;99.90;;;;;;4999593;28;20029;-82
2023/01/04 09:22:40;;;;;;;8.55;6.38;;;11.20;99.90;;;;;;5014171;28;20378;-79
2023/01/04 09:25:07;;;;;;;9.75;6.55;;;11.30;99.90;;;;;;5009349;28;20060;-83
2023/01/04 09:27:34;;;;;;;11.30;7.85;;;11.30;99.90;;;;;;5018494;28;20045;-81
2023/01/04 09:30:00;;;;;;;10.73;8.38;;;11.30;99.90;;;;;;4998547;28;20033;-81
2023/01/04 09:32:26;;;;;;;10.85;8.57;;;11.30;99.90;;;;;;5014562;28;20510;-82
2023/01/04 09:34:55;;;;;;;11.00;7.20;;;11.30;99.90;;;;;;5014230;28;20406;-81
2023/01/04 09:37:21;;;;;;;11.15;7.82;;;11.30;99.90;;;;;;5008942;28;20033;-83
2023/01/04 09:39:47;;;;;;;9.57;6.32;;;11.40;99.90;;;;;;5015341;28;20034;-82
2023/01/04 09:42:26;;;;;;;13.18;9.80;;;11.40;99.90;;;;;;5029047;28;20041;-80
2023/01/04 09:45:11;;;;;;;11.07;7.35;;;11.40;99.90;;;;;;5012820;28;20480;-81
2023/01/04 09:47:46;;;;;;;7.32;4.97;;;11.40;99.90;;;;;;5041596;28;20032;-82
2023/01/04 09:50:23;;;;;;;8.85;5.20;;;11.40;99.90;;;;;;5027562;28;20393;-81
2023/01/04 09:53:25;;;;;;;7.07;5.32;;;11.40;99.90;;;;;;5035080;28;20747;-78
2023/01/04 09:55:54;;;;;;;12.35;6.53;;;11.50;99.90;;;;;;5021635;28;20054;-82
2023/01/04 09:58:31;;;;;;;10.10;6.00;;;11.50;99.90;;;;;;5021627;28;20037;-80
2023/01/04 10:01:16;;;;;;;8.40;6.30;;;11.50;99.90;;;;;;5013964;28;20041;-81
2023/01/04 10:04:34;;;;;;;9.68;5.78;;;11.50;99.90;;;;;;5029597;28;20037;-81
2023/01/04 10:07:01;;;;;;;9.73;5.57;;;11.50;99.90;;;;;;4984556;28;20052;-80
2023/01/04 10:09:27;;;;;;;8.30;6.47;;;11.50;99.90;;;;;;5019064;28;20036;-80
2023/01/04 10:12:27;;;;;;;9.80;6.70;;;11.50;99.90;;;;;;5038768;28;20269;-80
2023/01/04 10:15:25;;;;;;;9.65;6.68;;;11.50;99.90;;;;;;5041474;28;20029;-80
2023/01/04 10:18:16;;;;;;;7.00;5.20;;;11.50;99.90;;;;;;4997696;28;20045;-81
2023/01/04 10:21:09;;;;;;;11.73;7.18;;;11.50;99.90;;;;;;5036211;28;20037;-79
2023/01/04 10:24:03;;;;;;;6.32;4.97;;;11.60;99.90;;;;;;5015335;28;20042;-80
2023/01/04 10:26:47;;;;;;;10.35;8.05;;;11.60;99.90;;;;;;5032730;28;20033;-79
2023/01/04 10:29:59;;;;;;;8.52;5.05;;;11.60;99.90;;;;;;5038742;28;20044;-80
2023/01/04 10:32:28;;;;;;;6.75;4.50;;;11.60;99.90;;;;;;5010383;28;20046;-81
2023/01/04 10:34:55;;;;;;;9.00;5.43;;;11.60;99.90;;;;;;5013903;28;20045;-80
2023/01/04 10:37:32;;;;;;;4.40;4.00;;;11.60;99.90;;;;;;5019431;28;20037;-80
2023/01/04 10:39:59;;;;;;;7.13;5.88;;;11.60;99.90;;;;;;5034189;28;20029;-82
2023/01/04 10:42:45;;;;;;;8.18;4.68;;;11.60;99.90;;;;;;5020916;28;20033;-81
2023/01/04 10:45:30;;;;;;;9.77;5.25;;;11.70;99.90;;;;;;5012472;28;20397;-81
2023/01/04 10:48:23;;;;;;;10.70;6.18;;;11.70;99.90;;;;;;5006530;28;20506;-81
2023/01/04 10:50:55;;;;;;;;;;;11.70;99.90;;;;;;5026074;28;20049;-80
2023/01/04 10:53:34;;;;;;;6.13;5.45;;;11.60;99.90;;;;;;5024302;28;19912;-81
2023/01/04 10:56:08;;;;;;;6.45;4.75;;;11.70;99.90;;;;;;5035054;28;20041;-81
2023/01/04 10:58:54;;;;;;;7.05;6.32;;;11.60;99.90;;;;;;5035127;28;20480;-82
2023/01/04 11:01:31;;;;;;;8.05;7.25;;;11.60;99.90;;;;;;5015056;28;20052;-81
2023/01/04 11:04:19;;;;;;;9.75;8.15;;;11.70;99.90;;;;;;5034545;28;20040;-81
2023/01/04 11:06:53;;;;;;;20.10;10.02;;;11.70;99.90;;;;;;5035369;28;20479;-81
2023/01/04 11:09:32;;;;;;;6.20;5.65;;;11.70;99.90;;;;;;5020462;28;20044;-82
2023/01/04 11:12:01;;;;;;;7.35;5.47;;;11.70;99.90;;;;;;5042822;28;20519;-77
2023/01/04 11:14:27;;;;;;;6.70;4.78;;;11.70;99.90;;;;;;5020906;28;20056;-82
2023/01/04 11:17:02;;;;;;;6.13;4.78;;;11.70;99.90;;;;;;5008316;28;20057;-82
2023/01/04 11:19:28;;;;;;;5.47;4.70;;;11.80;99.90;;;;;;5018356;28;20121;-80
2023/01/04 11:22:11;;;;;;;6.65;4.43;;;11.80;99.90;;;;;;5005745;28;20485;-82
2023/01/04 11:24:38;;;;;;;4.50;4.13;;;11.80;99.90;;;;;;5011206;28;20485;-80
2023/01/04 11:27:12;;;;;;;6.65;5.57;;;11.80;99.90;;;;;;5036460;28;20040;-81
2023/01/04 11:29:51;;;;;;;7.03;4.55;;;11.80;99.90;;;;;;5021971;28;20033;-83
2023/01/04 11:32:30;;;;;;;7.60;5.18;;;11.80;99.90;;;;;;5024035;28;20037;-80
2023/01/04 11:34:56;;;;;;;8.02;5.30;;;11.80;99.90;;;;;;5044895;28;20041;-79
2023/01/04 11:37:29;;;;;;;5.88;5.07;;;11.80;99.90;;;;;;5046990;28;20036;-82
2023/01/04 11:40:16;;;;;;;8.05;5.75;;;11.80;99.90;;;;;;5031117;28;20574;-81
2023/01/04 11:42:44;;;;;;;5.82;4.60;;;11.80;99.90;;;;;;5035706;28;20520;-82
2023/01/04 11:45:17;;;;;;;5.78;4.68;;;11.80;99.90;;;;;;5033805;28;20029;-80
2023/01/04 11:47:53;;;;;;;5.55;4.65;;;11.80;99.90;;;;;;5020434;28;20041;-84
2023/01/04 11:50:34;;;;;;;7.55;5.30;;;11.90;99.90;;;;;;5013506;28;20049;-82
2023/01/04 11:53:01;;;;;;;5.57;4.70;;;11.90;99.90;;;;;;5013908;28;20507;-83
2023/01/04 11:55:29;;;;;;;4.60;3.85;;;11.80;99.90;;;;;;5004502;28;20048;-81
2023/01/04 11:58:09;;;;;;;5.38;3.90;;;11.80;99.90;;;;;;5002548;28;20053;-81
2023/01/04 12:00:37;;;;;;;7.20;4.80;;;11.80;99.90;;;;;;5021646;28;20041;-84
2023/01/04 12:03:15;;;;;;;5.00;4.50;;;11.80;99.90;;;;;;5012891;28;20033;-83
2023/01/04 12:05:41;;;;;;;4.80;4.30;;;11.90;99.90;;;;;;5026451;28;20040;-82
2023/01/04 12:08:33;;;;;;;6.28;4.30;;;11.90;99.90;;;;;;5032445;28;21201;-83
2023/01/04 12:11:01;;;;;;;5.30;4.80;;;11.90;99.90;;;;;;5031826;28;20407;-83
2023/01/04 12:13:30;;;;;;;4.93;4.53;;;11.90;99.90;;;;;;5034767;28;20383;-82
2023/01/04 12:16:02;;;;;;;5.53;5.00;;;11.90;99.90;;;;;;5034802;28;20567;-80
2023/01/04 12:18:40;;;;;;;5.47;4.97;;;11.90;99.90;;;;;;5028256;28;20053;-85
2023/01/04 12:21:18;;;;;;;6.55;5.68;;;11.90;99.90;;;;;;5023817;28;20042;-84
2023/01/04 12:23:45;;;;;;;6.80;6.18;;;12.00;99.90;;;;;;5035579;28;20461;-84
2023/01/04 12:26:13;;;;;;;7.35;6.35;;;12.00;99.90;;;;;;5029319;28;20406;-81
2023/01/04 12:28:43;;;;;;;5.95;5.38;;;12.00;99.90;;;;;;5028461;28;20096;-85
2023/01/04 12:31:18;;;;;;;6.43;5.82;;;12.00;99.90;;;;;;5032193;28;20075;-85
2023/01/04 12:33:48;;;;;;;6.15;5.47;;;12.00;99.90;;;;;;5037426;28;20044;-79
2023/01/04 12:36:31;;;;;;;6.70;5.90;;;12.10;99.90;;;;;;5002621;28;20045;-83
2023/01/04 12:38:59;;;;;;;;;;;12.10;99.90;;;;;;5038048;28;20034;-83
2023/01/04 12:41:35;;;;;;;7.93;6.38;;;12.10;99.90;;;;;;5016187;28;19913;-83
2023/01/04 12:44:02;;;;;;;7.32;6.60;;;12.10;99.90;;;;;;5034468;28;20033;-80
2023/01/04 12:49:25;;;;;;;9.50;6.53;;;12.10;99.90;;;;;;5031325;28;20519;-80
2023/01/04 12:52:07;;;;;;;12.73;7.40;;;12.10;99.90;;;;;;5035094;28;20036;-80
2023/01/04 12:54:59;;;;;;;7.65;6.07;;;12.10;99.90;;;;;;5026798;28;20044;-80
2023/01/04 12:57:35;;;;;;;9.18;6.50;;;12.10;99.90;;;;;;5012923;28;20416;-82
2023/01/04 13:00:13;;;;;;;9.30;6.72;;;12.20;99.90;;;;;;5031040;28;20037;-83
2023/01/04 13:02:50;;;;;;;9.05;5.68;;;12.20;99.90;;;;;;5031064;28;20131;-81
2023/01/04 13:05:16;;;;;;;9.55;5.60;;;12.20;99.90;;;;;;5025630;28;20060;-86
2023/01/04 13:07:58;;;;;;;11.73;5.40;;;12.20;99.90;;;;;;5034761;28;20042;-81
2023/01/04 13:10:47;;;;;;;12.98;5.38;;;12.20;99.90;;;;;;5044142;28;20045;-83
2023/01/04 13:13:32;;;;;;;9.38;5.30;;;12.20;99.90;;;;;;5013807;28;20056;-83
2023/01/04 13:16:08;;;;;;;11.02;5.00;;;12.20;99.90;;;;;;5027983;28;20073;-86
2023/01/04 13:18:41;;;;;;;7.82;4.50;;;12.20;99.90;;;;;;5033480;28;20071;-80
2023/01/04 13:21:12;;;;;;;9.38;4.93;;;12.20;99.90;;;;;;5035678;28;20029;-87
2023/01/04 13:23:44;;;;;;;6.97;5.10;;;12.20;99.90;;;;;;5015337;28;20166;-84
2023/01/04 13:26:37;;;;;;;6.10;4.18;;;12.30;99.90;;;;;;5031161;28;20396;-84
2023/01/04 13:29:04;;;;;;;;;;;12.30;99.90;;;;;;5030021;28;20037;-86
2023/01/04 13:31:31;;;;;;;7.72;4.95;;;12.30;99.90;;;;;;5025411;28;19920;-86
2023/01/04 13:33:57;;;;;;;8.55;4.00;;;12.30;99.90;;;;;;5010112;28;20053;-85
2023/01/04 13:36:23;;;;;;;8.65;4.22;;;12.30;99.90;;;;;;5031056;28;20040;-81
2023/01/04 13:38:50;;;;;;;6.40;3.80;;;12.30;99.90;;;;;;5026840;28;20148;-84
2023/01/04 13:41:21;;;;;;;9.35;4.70;;;12.40;99.90;;;;;;5018652;28;20041;-86
2023/01/04 13:44:06;;;;;;;6.40;3.88;;;12.30;99.90;;;;;;5016175;28;20033;-85
2023/01/04 13:46:33;;;;;;;7.82;4.45;;;12.40;99.90;;;;;;5009464;28;20044;-83
2023/01/04 13:49:01;;;;;;;8.70;4.45;;;12.40;99.90;;;;;;5034764;28;20033;-85
2023/01/04 13:51:35;;;;;;;7.03;4.00;;;12.30;99.90;;;;;;5026341;28;20044;-81
2023/01/04 13:54:05;;;;;;;6.18;4.53;;;12.40;99.90;;;;;;5024096;28;20051;-82
2023/01/04 13:56:33;;;;;;;10.00;4.43;;;12.30;99.90;;;;;;5022964;28;20025;-83
2023/01/04 13:59:00;;;;;;;9.35;4.60;;;12.30;99.90;;;;;;5011019;28;20041;-83